sensor_id;sensor_type;location;lat;lon;timestamp;temperature;humidity
7876;DHT22;69649;53.712;9.680;2023-05-07T00:00:09;9.00;71.70
7876;DHT22;69649;53.712;9.680;2023-05-07T00:02:36;9.00;71.80
7876;DHT22;69649;53.712;9.680;2023-05-07T00:05:03;9.00;71.50
7876;DHT22;69649;53.712;9.680;2023-05-07T00:07:30;8.90;71.80
7876;DHT22;69649;53.712;9.680;2023-05-07T00:09:56;8.80;71.90
7876;DHT22;69649;53.712;9.680;2023-05-07T00:12:22;8.90;72.00
7876;DHT22;69649;53.712;9.680;2023-05-07T00:14:47;8.90;71.90
7876;DHT22;69649;53.712;9.680;2023-05-07T00:17:13;8.90;71.80
7876;DHT22;69649;53.712;9.680;2023-05-07T00:19:39;8.80;72.00
7876;DHT22;69649;53.712;9.680;2023-05-07T00:22:05;8.90;71.70
7876;DHT22;69649;53.712;9.680;2023-05-07T00:24:30;8.90;72.00
7876;DHT22;69649;53.712;9.680;2023-05-07T00:26:56;8.90;71.80
7876;DHT22;69649;53.712;9.680;2023-05-07T00:29:23;8.90;71.80
7876;DHT22;69649;53.712;9.680;2023-05-07T00:31:49;8.90;71.70
7876;DHT22;69649;53.712;9.680;2023-05-07T00:34:16;8.90;71.80
7876;DHT22;69649;53.712;9.680;2023-05-07T00:36:41;8.80;71.90
7876;DHT22;69649;53.712;9.680;2023-05-07T00:39:08;8.80;71.90
7876;DHT22;69649;53.712;9.680;2023-05-07T00:41:34;8.80;71.90
7876;DHT22;69649;53.712;9.680;2023-05-07T00:44:00;8.90;72.00
7876;DHT22;69649;53.712;9.680;2023-05-07T00:46:28;8.80;71.80
7876;DHT22;69649;53.712;9.680;2023-05-07T00:48:54;8.60;72.10
7876;DHT22;69649;53.712;9.680;2023-05-07T00:51:20;8.70;71.80
7876;DHT22;69649;53.712;9.680;2023-05-07T00:53:46;8.70;72.10
7876;DHT22;69649;53.712;9.680;2023-05-07T00:56:12;8.80;71.90
7876;DHT22;69649;53.712;9.680;2023-05-07T00:58:38;8.80;71.60
7876;DHT22;69649;53.712;9.680;2023-05-07T01:01:04;8.70;71.80
7876;DHT22;69649;53.712;9.680;2023-05-07T01:03:30;8.60;71.90
7876;DHT22;69649;53.712;9.680;2023-05-07T01:05:56;8.60;72.10
7876;DHT22;69649;53.712;9.680;2023-05-07T01:08:23;8.60;72.10
7876;DHT22;69649;53.712;9.680;2023-05-07T01:10:51;8.60;71.90
7876;DHT22;69649;53.712;9.680;2023-05-07T01:13:18;8.70;71.90
7876;DHT22;69649;53.712;9.680;2023-05-07T01:15:44;8.80;71.80
7876;DHT22;69649;53.712;9.680;2023-05-07T01:18:11;8.60;71.80
7876;DHT22;69649;53.712;9.680;2023-05-07T01:20:36;8.70;71.90
7876;DHT22;69649;53.712;9.680;2023-05-07T01:23:03;8.70;71.70
7876;DHT22;69649;53.712;9.680;2023-05-07T01:25:29;8.70;71.70
7876;DHT22;69649;53.712;9.680;2023-05-07T01:27:56;8.60;71.90
7876;DHT22;69649;53.712;9.680;2023-05-07T01:30:22;8.70;71.60
7876;DHT22;69649;53.712;9.680;2023-05-07T01:33:08;8.60;71.80
7876;DHT22;69649;53.712;9.680;2023-05-07T01:35:22;8.60;71.80
7876;DHT22;69649;53.712;9.680;2023-05-07T01:37:50;8.60;71.60
7876;DHT22;69649;53.712;9.680;2023-05-07T01:40:16;8.60;71.70
7876;DHT22;69649;53.712;9.680;2023-05-07T01:42:43;8.60;71.80
7876;DHT22;69649;53.712;9.680;2023-05-07T01:45:09;8.60;71.70
7876;DHT22;69649;53.712;9.680;2023-05-07T01:47:36;8.60;71.80
7876;DHT22;69649;53.712;9.680;2023-05-07T01:50:05;8.60;71.70
7876;DHT22;69649;53.712;9.680;2023-05-07T01:52:31;8.50;71.60
7876;DHT22;69649;53.712;9.680;2023-05-07T01:54:57;8.60;71.50
7876;DHT22;69649;53.712;9.680;2023-05-07T01:57:22;8.60;71.40
7876;DHT22;69649;53.712;9.680;2023-05-07T01:59:48;8.60;71.50
7876;DHT22;69649;53.712;9.680;2023-05-07T02:02:14;8.60;71.70
7876;DHT22;69649;53.712;9.680;2023-05-07T02:04:39;8.60;71.40
7876;DHT22;69649;53.712;9.680;2023-05-07T02:07:05;8.60;71.30
7876;DHT22;69649;53.712;9.680;2023-05-07T02:09:31;8.60;71.50
7876;DHT22;69649;53.712;9.680;2023-05-07T02:11:57;8.60;71.40
7876;DHT22;69649;53.712;9.680;2023-05-07T02:14:22;8.60;71.30
7876;DHT22;69649;53.712;9.680;2023-05-07T02:16:48;8.60;71.30
7876;DHT22;69649;53.712;9.680;2023-05-07T02:19:14;8.60;71.30
7876;DHT22;69649;53.712;9.680;2023-05-07T02:21:39;8.60;71.30
7876;DHT22;69649;53.712;9.680;2023-05-07T02:24:06;8.60;71.20
7876;DHT22;69649;53.712;9.680;2023-05-07T02:26:31;8.50;71.30
7876;DHT22;69649;53.712;9.680;2023-05-07T02:28:57;8.60;71.30
7876;DHT22;69649;53.712;9.680;2023-05-07T02:31:23;8.60;71.20
7876;DHT22;69649;53.712;9.680;2023-05-07T02:33:48;8.60;71.20
7876;DHT22;69649;53.712;9.680;2023-05-07T02:36:14;8.60;71.10
7876;DHT22;69649;53.712;9.680;2023-05-07T02:38:40;8.60;71.10
7876;DHT22;69649;53.712;9.680;2023-05-07T02:41:05;8.60;71.40
7876;DHT22;69649;53.712;9.680;2023-05-07T02:43:32;8.60;71.20
7876;DHT22;69649;53.712;9.680;2023-05-07T02:46:06;8.60;71.20
7876;DHT22;69649;53.712;9.680;2023-05-07T02:48:32;8.60;71.30
7876;DHT22;69649;53.712;9.680;2023-05-07T02:50:59;8.70;71.10
7876;DHT22;69649;53.712;9.680;2023-05-07T02:53:25;8.60;70.90
7876;DHT22;69649;53.712;9.680;2023-05-07T02:55:54;8.60;71.10
7876;DHT22;69649;53.712;9.680;2023-05-07T02:58:19;8.60;71.20
7876;DHT22;69649;53.712;9.680;2023-05-07T03:00:45;8.60;71.10
7876;DHT22;69649;53.712;9.680;2023-05-07T03:03:11;8.60;71.20
7876;DHT22;69649;53.712;9.680;2023-05-07T03:05:37;8.60;71.30
7876;DHT22;69649;53.712;9.680;2023-05-07T03:08:03;8.70;71.30
7876;DHT22;69649;53.712;9.680;2023-05-07T03:10:30;8.80;71.20
7876;DHT22;69649;53.712;9.680;2023-05-07T03:12:55;8.80;71.20
7876;DHT22;69649;53.712;9.680;2023-05-07T03:15:21;8.80;71.10
7876;DHT22;69649;53.712;9.680;2023-05-07T03:17:48;8.70;71.30
7876;DHT22;69649;53.712;9.680;2023-05-07T03:20:14;8.70;71.20
7876;DHT22;69649;53.712;9.680;2023-05-07T03:22:39;8.70;71.30
7876;DHT22;69649;53.712;9.680;2023-05-07T03:25:06;8.60;71.50
7876;DHT22;69649;53.712;9.680;2023-05-07T03:27:32;8.60;71.40
7876;DHT22;69649;53.712;9.680;2023-05-07T03:29:58;8.80;71.00
7876;DHT22;69649;53.712;9.680;2023-05-07T03:32:25;8.60;71.20
7876;DHT22;69649;53.712;9.680;2023-05-07T03:34:51;8.50;71.50
7876;DHT22;69649;53.712;9.680;2023-05-07T03:37:17;8.60;71.50
7876;DHT22;69649;53.712;9.680;2023-05-07T03:39:42;8.60;71.50
7876;DHT22;69649;53.712;9.680;2023-05-07T03:42:08;8.70;71.20
7876;DHT22;69649;53.712;9.680;2023-05-07T03:44:34;8.60;71.50
7876;DHT22;69649;53.712;9.680;2023-05-07T03:47:02;8.60;71.80
7876;DHT22;69649;53.712;9.680;2023-05-07T03:49:28;8.60;71.70
7876;DHT22;69649;53.712;9.680;2023-05-07T03:51:53;8.60;71.50
7876;DHT22;69649;53.712;9.680;2023-05-07T03:54:19;8.60;71.70
7876;DHT22;69649;53.712;9.680;2023-05-07T03:56:45;8.60;71.50
7876;DHT22;69649;53.712;9.680;2023-05-07T03:59:12;8.60;71.40
7876;DHT22;69649;53.712;9.680;2023-05-07T04:01:38;8.60;71.50
7876;DHT22;69649;53.712;9.680;2023-05-07T04:04:04;8.60;71.60
7876;DHT22;69649;53.712;9.680;2023-05-07T04:06:30;8.60;71.50
7876;DHT22;69649;53.712;9.680;2023-05-07T04:08:56;8.50;71.60
7876;DHT22;69649;53.712;9.680;2023-05-07T04:11:22;8.60;71.80
7876;DHT22;69649;53.712;9.680;2023-05-07T04:13:47;8.60;71.80
7876;DHT22;69649;53.712;9.680;2023-05-07T04:16:13;8.60;71.70
7876;DHT22;69649;53.712;9.680;2023-05-07T04:18:39;8.60;71.80
7876;DHT22;69649;53.712;9.680;2023-05-07T04:21:05;8.60;71.80
7876;DHT22;69649;53.712;9.680;2023-05-07T04:23:31;8.60;71.60
7876;DHT22;69649;53.712;9.680;2023-05-07T04:25:57;8.60;71.50
7876;DHT22;69649;53.712;9.680;2023-05-07T04:28:23;8.60;71.50
7876;DHT22;69649;53.712;9.680;2023-05-07T04:30:49;8.60;71.20
7876;DHT22;69649;53.712;9.680;2023-05-07T04:33:15;8.60;71.20
7876;DHT22;69649;53.712;9.680;2023-05-07T04:35:42;8.60;71.00
7876;DHT22;69649;53.712;9.680;2023-05-07T04:38:08;8.60;71.10
7876;DHT22;69649;53.712;9.680;2023-05-07T04:40:35;8.60;70.90
7876;DHT22;69649;53.712;9.680;2023-05-07T04:43:01;8.80;70.80
7876;DHT22;69649;53.712;9.680;2023-05-07T04:45:27;8.80;70.50
7876;DHT22;69649;53.712;9.680;2023-05-07T04:47:52;8.80;70.30
7876;DHT22;69649;53.712;9.680;2023-05-07T04:50:18;8.80;70.30
7876;DHT22;69649;53.712;9.680;2023-05-07T04:52:45;8.70;70.30
7876;DHT22;69649;53.712;9.680;2023-05-07T04:55:11;8.90;70.30
7876;DHT22;69649;53.712;9.680;2023-05-07T04:57:36;8.80;70.20
7876;DHT22;69649;53.712;9.680;2023-05-07T05:00:06;8.80;70.30
7876;DHT22;69649;53.712;9.680;2023-05-07T05:02:34;8.80;70.40
7876;DHT22;69649;53.712;9.680;2023-05-07T05:05:00;8.70;70.40
7876;DHT22;69649;53.712;9.680;2023-05-07T05:07:28;8.80;70.50
7876;DHT22;69649;53.712;9.680;2023-05-07T05:09:55;8.70;70.00
7876;DHT22;69649;53.712;9.680;2023-05-07T05:12:21;8.70;70.10
7876;DHT22;69649;53.712;9.680;2023-05-07T05:14:46;8.80;70.10
7876;DHT22;69649;53.712;9.680;2023-05-07T05:17:12;8.80;69.80
7876;DHT22;69649;53.712;9.680;2023-05-07T05:19:38;8.80;69.50
7876;DHT22;69649;53.712;9.680;2023-05-07T05:22:04;8.80;69.30
7876;DHT22;69649;53.712;9.680;2023-05-07T05:24:31;8.80;69.40
7876;DHT22;69649;53.712;9.680;2023-05-07T05:26:57;8.80;69.40
7876;DHT22;69649;53.712;9.680;2023-05-07T05:29:23;8.90;69.40
7876;DHT22;69649;53.712;9.680;2023-05-07T05:31:49;8.90;69.20
7876;DHT22;69649;53.712;9.680;2023-05-07T05:34:15;9.00;69.20
7876;DHT22;69649;53.712;9.680;2023-05-07T05:36:41;8.90;69.40
7876;DHT22;69649;53.712;9.680;2023-05-07T05:39:06;8.90;69.50
7876;DHT22;69649;53.712;9.680;2023-05-07T05:41:32;9.00;69.50
7876;DHT22;69649;53.712;9.680;2023-05-07T05:43:59;9.10;69.50
7876;DHT22;69649;53.712;9.680;2023-05-07T05:46:24;9.20;69.30
7876;DHT22;69649;53.712;9.680;2023-05-07T05:48:50;9.10;69.20
7876;DHT22;69649;53.712;9.680;2023-05-07T05:51:16;9.10;69.30
7876;DHT22;69649;53.712;9.680;2023-05-07T05:53:42;9.10;69.50
7876;DHT22;69649;53.712;9.680;2023-05-07T05:56:07;9.20;69.20
7876;DHT22;69649;53.712;9.680;2023-05-07T05:58:33;9.20;69.10
7876;DHT22;69649;53.712;9.680;2023-05-07T06:00:59;9.20;68.70
7876;DHT22;69649;53.712;9.680;2023-05-07T06:03:25;9.20;68.90
7876;DHT22;69649;53.712;9.680;2023-05-07T06:05:51;9.20;69.20
7876;DHT22;69649;53.712;9.680;2023-05-07T06:08:17;9.70;73.80
7876;DHT22;69649;53.712;9.680;2023-05-07T06:10:44;10.10;67.10
7876;DHT22;69649;53.712;9.680;2023-05-07T06:13:09;10.00;67.20
7876;DHT22;69649;53.712;9.680;2023-05-07T06:15:35;9.60;67.70
7876;DHT22;69649;53.712;9.680;2023-05-07T06:18:01;9.60;68.90
7876;DHT22;69649;53.712;9.680;2023-05-07T06:20:26;9.40;68.10
7876;DHT22;69649;53.712;9.680;2023-05-07T06:22:52;9.40;68.50
7876;DHT22;69649;53.712;9.680;2023-05-07T06:25:18;9.40;68.50
7876;DHT22;69649;53.712;9.680;2023-05-07T06:27:44;9.40;68.40
7876;DHT22;69649;53.712;9.680;2023-05-07T06:30:10;9.40;68.60
7876;DHT22;69649;53.712;9.680;2023-05-07T06:32:36;9.40;68.70
7876;DHT22;69649;53.712;9.680;2023-05-07T06:35:02;9.40;68.40
7876;DHT22;69649;53.712;9.680;2023-05-07T06:37:28;9.40;68.60
7876;DHT22;69649;53.712;9.680;2023-05-07T06:39:53;9.40;68.60
7876;DHT22;69649;53.712;9.680;2023-05-07T06:42:19;9.30;68.50
7876;DHT22;69649;53.712;9.680;2023-05-07T06:44:45;9.30;68.60
7876;DHT22;69649;53.712;9.680;2023-05-07T06:47:11;9.30;68.70
7876;DHT22;69649;53.712;9.680;2023-05-07T06:49:36;9.20;68.80
7876;DHT22;69649;53.712;9.680;2023-05-07T06:52:02;9.20;68.80
7876;DHT22;69649;53.712;9.680;2023-05-07T06:54:29;9.40;68.70
7876;DHT22;69649;53.712;9.680;2023-05-07T06:56:55;9.50;67.90
7876;DHT22;69649;53.712;9.680;2023-05-07T06:59:20;9.40;67.90
7876;DHT22;69649;53.712;9.680;2023-05-07T07:01:46;9.50;68.00
7876;DHT22;69649;53.712;9.680;2023-05-07T07:04:12;9.50;68.20
7876;DHT22;69649;53.712;9.680;2023-05-07T07:06:38;9.50;67.80
7876;DHT22;69649;53.712;9.680;2023-05-07T07:09:04;9.50;67.70
7876;DHT22;69649;53.712;9.680;2023-05-07T07:11:30;9.50;67.90
7876;DHT22;69649;53.712;9.680;2023-05-07T07:13:55;9.50;68.00
7876;DHT22;69649;53.712;9.680;2023-05-07T07:16:22;9.60;67.60
7876;DHT22;69649;53.712;9.680;2023-05-07T07:18:47;9.60;67.40
7876;DHT22;69649;53.712;9.680;2023-05-07T07:21:13;9.70;67.60
7876;DHT22;69649;53.712;9.680;2023-05-07T07:23:39;9.70;67.40
7876;DHT22;69649;53.712;9.680;2023-05-07T07:26:05;9.80;67.20
7876;DHT22;69649;53.712;9.680;2023-05-07T07:28:32;10.00;67.20
7876;DHT22;69649;53.712;9.680;2023-05-07T07:30:57;10.00;66.90
7876;DHT22;69649;53.712;9.680;2023-05-07T07:33:24;10.10;66.80
7876;DHT22;69649;53.712;9.680;2023-05-07T07:35:50;10.20;66.60
7876;DHT22;69649;53.712;9.680;2023-05-07T07:38:16;10.20;66.40
7876;DHT22;69649;53.712;9.680;2023-05-07T07:40:41;10.20;66.20
7876;DHT22;69649;53.712;9.680;2023-05-07T07:43:09;10.30;66.40
7876;DHT22;69649;53.712;9.680;2023-05-07T07:45:35;10.40;66.40
7876;DHT22;69649;53.712;9.680;2023-05-07T07:48:00;10.50;66.10
7876;DHT22;69649;53.712;9.680;2023-05-07T07:50:26;10.50;66.10
7876;DHT22;69649;53.712;9.680;2023-05-07T07:52:52;10.70;66.00
7876;DHT22;69649;53.712;9.680;2023-05-07T07:55:20;10.60;65.80
7876;DHT22;69649;53.712;9.680;2023-05-07T07:57:48;10.70;65.60
7876;DHT22;69649;53.712;9.680;2023-05-07T08:00:14;10.80;65.40
7876;DHT22;69649;53.712;9.680;2023-05-07T08:02:40;10.80;65.60
7876;DHT22;69649;53.712;9.680;2023-05-07T08:05:07;10.80;65.30
7876;DHT22;69649;53.712;9.680;2023-05-07T08:07:33;10.70;65.30
7876;DHT22;69649;53.712;9.680;2023-05-07T08:09:58;10.60;65.60
7876;DHT22;69649;53.712;9.680;2023-05-07T08:12:25;10.70;65.50
7876;DHT22;69649;53.712;9.680;2023-05-07T08:14:51;10.70;65.40
7876;DHT22;69649;53.712;9.680;2023-05-07T08:17:17;10.80;65.10
7876;DHT22;69649;53.712;9.680;2023-05-07T08:19:43;10.80;65.60
7876;DHT22;69649;53.712;9.680;2023-05-07T08:22:10;11.00;65.50
7876;DHT22;69649;53.712;9.680;2023-05-07T08:24:36;10.80;65.10
7876;DHT22;69649;53.712;9.680;2023-05-07T08:27:02;10.80;65.00
7876;DHT22;69649;53.712;9.680;2023-05-07T08:29:28;10.80;65.20
7876;DHT22;69649;53.712;9.680;2023-05-07T08:31:53;10.70;65.20
7876;DHT22;69649;53.712;9.680;2023-05-07T08:34:20;10.80;65.20
7876;DHT22;69649;53.712;9.680;2023-05-07T08:36:46;10.90;64.80
7876;DHT22;69649;53.712;9.680;2023-05-07T08:39:15;10.90;64.70
7876;DHT22;69649;53.712;9.680;2023-05-07T08:41:45;10.90;64.80
7876;DHT22;69649;53.712;9.680;2023-05-07T08:44:13;10.90;64.90
7876;DHT22;69649;53.712;9.680;2023-05-07T08:46:41;11.00;64.70
7876;DHT22;69649;53.712;9.680;2023-05-07T08:49:08;11.00;64.90
7876;DHT22;69649;53.712;9.680;2023-05-07T08:51:35;11.00;64.70
7876;DHT22;69649;53.712;9.680;2023-05-07T08:54:01;11.10;64.60
7876;DHT22;69649;53.712;9.680;2023-05-07T08:56:27;11.20;64.40
7876;DHT22;69649;53.712;9.680;2023-05-07T08:58:53;11.20;64.30
7876;DHT22;69649;53.712;9.680;2023-05-07T09:01:24;11.30;64.10
7876;DHT22;69649;53.712;9.680;2023-05-07T09:03:50;11.40;63.80
7876;DHT22;69649;53.712;9.680;2023-05-07T09:06:16;11.40;64.10
7876;DHT22;69649;53.712;9.680;2023-05-07T09:08:53;11.30;64.30
7876;DHT22;69649;53.712;9.680;2023-05-07T09:11:21;11.40;64.10
7876;DHT22;69649;53.712;9.680;2023-05-07T09:13:48;11.50;64.00
7876;DHT22;69649;53.712;9.680;2023-05-07T09:16:14;11.40;64.00
7876;DHT22;69649;53.712;9.680;2023-05-07T09:18:45;11.40;64.00
7876;DHT22;69649;53.712;9.680;2023-05-07T09:21:17;11.40;63.90
7876;DHT22;69649;53.712;9.680;2023-05-07T09:23:44;11.30;64.50
7876;DHT22;69649;53.712;9.680;2023-05-07T09:26:10;11.30;64.10
7876;DHT22;69649;53.712;9.680;2023-05-07T09:28:40;11.10;64.40
7876;DHT22;69649;53.712;9.680;2023-05-07T09:31:08;11.20;64.40
7876;DHT22;69649;53.712;9.680;2023-05-07T09:33:34;11.30;64.00
7876;DHT22;69649;53.712;9.680;2023-05-07T09:36:05;11.30;64.40
7876;DHT22;69649;53.712;9.680;2023-05-07T09:38:33;11.40;63.70
7876;DHT22;69649;53.712;9.680;2023-05-07T09:43:34;11.40;63.70
7876;DHT22;69649;53.712;9.680;2023-05-07T09:46:02;11.40;64.00
7876;DHT22;69649;53.712;9.680;2023-05-07T09:48:29;11.50;64.00
7876;DHT22;69649;53.712;9.680;2023-05-07T09:50:56;11.40;63.30
7876;DHT22;69649;53.712;9.680;2023-05-07T09:53:26;11.30;63.90
7876;DHT22;69649;53.712;9.680;2023-05-07T09:55:52;11.30;63.80
7876;DHT22;69649;53.712;9.680;2023-05-07T09:58:18;11.40;63.90
7876;DHT22;69649;53.712;9.680;2023-05-07T10:00:45;11.50;63.60
7876;DHT22;69649;53.712;9.680;2023-05-07T10:03:11;11.50;63.20
7876;DHT22;69649;53.712;9.680;2023-05-07T10:05:38;11.50;63.50
7876;DHT22;69649;53.712;9.680;2023-05-07T10:08:05;11.40;63.50
7876;DHT22;69649;53.712;9.680;2023-05-07T10:10:32;11.40;63.30
7876;DHT22;69649;53.712;9.680;2023-05-07T10:12:59;11.40;63.30
7876;DHT22;69649;53.712;9.680;2023-05-07T10:15:26;11.50;63.30
7876;DHT22;69649;53.712;9.680;2023-05-07T10:17:53;11.50;63.20
7876;DHT22;69649;53.712;9.680;2023-05-07T10:20:19;11.50;63.40
7876;DHT22;69649;53.712;9.680;2023-05-07T10:22:47;11.70;63.10
7876;DHT22;69649;53.712;9.680;2023-05-07T10:25:18;11.70;63.00
7876;DHT22;69649;53.712;9.680;2023-05-07T10:27:48;11.80;62.40
7876;DHT22;69649;53.712;9.680;2023-05-07T10:33:03;12.00;62.30
7876;DHT22;69649;53.712;9.680;2023-05-07T10:35:38;12.10;62.00
7876;DHT22;69649;53.712;9.680;2023-05-07T10:38:04;12.00;62.20
7876;DHT22;69649;53.712;9.680;2023-05-07T10:40:33;11.90;62.20
7876;DHT22;69649;53.712;9.680;2023-05-07T10:43:01;12.00;62.20
7876;DHT22;69649;53.712;9.680;2023-05-07T10:45:28;12.10;61.60
7876;DHT22;69649;53.712;9.680;2023-05-07T10:50:39;12.00;61.50
7876;DHT22;69649;53.712;9.680;2023-05-07T10:53:20;11.90;62.00
7876;DHT22;69649;53.712;9.680;2023-05-07T10:58:41;12.10;61.80
7876;DHT22;69649;53.712;9.680;2023-05-07T11:01:07;12.20;61.60
7876;DHT22;69649;53.712;9.680;2023-05-07T11:03:33;12.40;61.70
7876;DHT22;69649;53.712;9.680;2023-05-07T11:06:15;12.70;61.20
7876;DHT22;69649;53.712;9.680;2023-05-07T11:14:06;13.00;60.80
7876;DHT22;69649;53.712;9.680;2023-05-07T11:16:32;13.00;59.80
7876;DHT22;69649;53.712;9.680;2023-05-07T11:18:58;13.00;60.50
7876;DHT22;69649;53.712;9.680;2023-05-07T11:21:35;13.00;59.60
7876;DHT22;69649;53.712;9.680;2023-05-07T11:24:01;13.10;60.30
7876;DHT22;69649;53.712;9.680;2023-05-07T11:26:29;13.20;59.40
7876;DHT22;69649;53.712;9.680;2023-05-07T11:28:56;13.10;60.10
7876;DHT22;69649;53.712;9.680;2023-05-07T11:31:26;13.10;59.20
7876;DHT22;69649;53.712;9.680;2023-05-07T11:33:54;13.20;59.50
7876;DHT22;69649;53.712;9.680;2023-05-07T11:36:22;13.30;59.20
7876;DHT22;69649;53.712;9.680;2023-05-07T11:38:48;13.50;59.20
7876;DHT22;69649;53.712;9.680;2023-05-07T11:41:16;13.70;58.40
7876;DHT22;69649;53.712;9.680;2023-05-07T11:43:59;13.90;58.30
7876;DHT22;69649;53.712;9.680;2023-05-07T11:46:27;13.90;57.90
7876;DHT22;69649;53.712;9.680;2023-05-07T11:48:53;13.70;58.60
7876;DHT22;69649;53.712;9.680;2023-05-07T11:51:21;13.70;58.60
7876;DHT22;69649;53.712;9.680;2023-05-07T11:53:47;13.70;58.60
7876;DHT22;69649;53.712;9.680;2023-05-07T11:56:15;13.60;58.20
7876;DHT22;69649;53.712;9.680;2023-05-07T11:58:42;13.90;58.20
7876;DHT22;69649;53.712;9.680;2023-05-07T12:01:09;13.90;57.90
7876;DHT22;69649;53.712;9.680;2023-05-07T12:03:36;14.00;57.40
7876;DHT22;69649;53.712;9.680;2023-05-07T12:06:08;14.00;58.10
7876;DHT22;69649;53.712;9.680;2023-05-07T12:08:37;14.20;57.70
7876;DHT22;69649;53.712;9.680;2023-05-07T12:11:08;14.30;57.20
7876;DHT22;69649;53.712;9.680;2023-05-07T12:13:35;14.30;56.70
7876;DHT22;69649;53.712;9.680;2023-05-07T12:16:01;14.00;57.60
7876;DHT22;69649;53.712;9.680;2023-05-07T12:18:29;14.20;57.70
7876;DHT22;69649;53.712;9.680;2023-05-07T12:20:55;14.40;57.60
7876;DHT22;69649;53.712;9.680;2023-05-07T12:23:22;14.50;56.70
7876;DHT22;69649;53.712;9.680;2023-05-07T12:25:48;14.50;56.80
7876;DHT22;69649;53.712;9.680;2023-05-07T12:28:18;14.70;56.50
7876;DHT22;69649;53.712;9.680;2023-05-07T12:30:45;14.60;56.70
7876;DHT22;69649;53.712;9.680;2023-05-07T12:33:11;14.40;57.00
7876;DHT22;69649;53.712;9.680;2023-05-07T12:35:40;14.30;57.60
7876;DHT22;69649;53.712;9.680;2023-05-07T12:38:11;14.60;56.60
7876;DHT22;69649;53.712;9.680;2023-05-07T12:40:50;14.70;56.10
7876;DHT22;69649;53.712;9.680;2023-05-07T12:43:25;14.70;56.20
7876;DHT22;69649;53.712;9.680;2023-05-07T12:45:54;14.50;56.70
7876;DHT22;69649;53.712;9.680;2023-05-07T12:48:21;14.80;56.40
7876;DHT22;69649;53.712;9.680;2023-05-07T12:50:51;14.90;56.80
7876;DHT22;69649;53.712;9.680;2023-05-07T12:53:21;15.00;58.00
7876;DHT22;69649;53.712;9.680;2023-05-07T12:55:49;15.30;55.90
7876;DHT22;69649;53.712;9.680;2023-05-07T12:58:20;15.30;56.00
7876;DHT22;69649;53.712;9.680;2023-05-07T13:00:50;15.20;55.90
7876;DHT22;69649;53.712;9.680;2023-05-07T13:03:32;15.10;56.20
7876;DHT22;69649;53.712;9.680;2023-05-07T13:05:57;15.20;56.60
7876;DHT22;69649;53.712;9.680;2023-05-07T13:08:35;15.10;56.20
7876;DHT22;69649;53.712;9.680;2023-05-07T13:11:03;15.10;56.30
7876;DHT22;69649;53.712;9.680;2023-05-07T13:13:34;15.20;56.10
7876;DHT22;69649;53.712;9.680;2023-05-07T13:16:00;15.30;56.40
7876;DHT22;69649;53.712;9.680;2023-05-07T13:18:27;15.80;55.20
7876;DHT22;69649;53.712;9.680;2023-05-07T13:20:53;15.80;55.50
7876;DHT22;69649;53.712;9.680;2023-05-07T13:23:19;16.00;54.50
7876;DHT22;69649;53.712;9.680;2023-05-07T13:25:45;16.00;54.60
7876;DHT22;69649;53.712;9.680;2023-05-07T13:28:11;16.20;55.30
7876;DHT22;69649;53.712;9.680;2023-05-07T13:30:37;16.60;53.70
7876;DHT22;69649;53.712;9.680;2023-05-07T13:33:03;16.90;53.50
7876;DHT22;69649;53.712;9.680;2023-05-07T13:35:29;16.90;52.80
7876;DHT22;69649;53.712;9.680;2023-05-07T13:37:55;16.90;53.30
7876;DHT22;69649;53.712;9.680;2023-05-07T13:40:22;16.80;53.40
7876;DHT22;69649;53.712;9.680;2023-05-07T13:42:48;16.70;53.20
7876;DHT22;69649;53.712;9.680;2023-05-07T13:45:14;16.80;54.00
7876;DHT22;69649;53.712;9.680;2023-05-07T13:47:41;17.40;53.40
7876;DHT22;69649;53.712;9.680;2023-05-07T13:50:08;17.60;52.50
7876;DHT22;69649;53.712;9.680;2023-05-07T13:52:34;18.00;51.30
7876;DHT22;69649;53.712;9.680;2023-05-07T13:55:00;17.40;52.10
7876;DHT22;69649;53.712;9.680;2023-05-07T13:57:26;17.20;52.50
7876;DHT22;69649;53.712;9.680;2023-05-07T13:59:51;17.30;52.80
7876;DHT22;69649;53.712;9.680;2023-05-07T14:02:17;17.40;52.50
7876;DHT22;69649;53.712;9.680;2023-05-07T14:04:43;17.40;52.60
7876;DHT22;69649;53.712;9.680;2023-05-07T14:07:08;17.20;52.90
7876;DHT22;69649;53.712;9.680;2023-05-07T14:09:34;17.40;52.50
7876;DHT22;69649;53.712;9.680;2023-05-07T14:12:00;17.50;52.10
7876;DHT22;69649;53.712;9.680;2023-05-07T14:14:27;17.60;51.80
7876;DHT22;69649;53.712;9.680;2023-05-07T14:16:52;17.70;51.50
7876;DHT22;69649;53.712;9.680;2023-05-07T14:19:18;17.80;51.90
7876;DHT22;69649;53.712;9.680;2023-05-07T14:21:44;18.00;50.70
7876;DHT22;69649;53.712;9.680;2023-05-07T14:24:10;18.00;51.00
7876;DHT22;69649;53.712;9.680;2023-05-07T14:26:36;18.00;50.90
7876;DHT22;69649;53.712;9.680;2023-05-07T14:29:02;17.80;51.20
7876;DHT22;69649;53.712;9.680;2023-05-07T14:31:28;17.80;50.80
7876;DHT22;69649;53.712;9.680;2023-05-07T14:33:54;17.60;52.20
7876;DHT22;69649;53.712;9.680;2023-05-07T14:36:20;17.60;51.60
7876;DHT22;69649;53.712;9.680;2023-05-07T14:38:48;17.50;50.80
7876;DHT22;69649;53.712;9.680;2023-05-07T14:41:14;17.60;50.70
7876;DHT22;69649;53.712;9.680;2023-05-07T14:43:40;17.40;51.00
7876;DHT22;69649;53.712;9.680;2023-05-07T14:46:06;17.40;51.30
7876;DHT22;69649;53.712;9.680;2023-05-07T14:48:31;17.50;51.70
7876;DHT22;69649;53.712;9.680;2023-05-07T14:50:57;17.60;51.20
7876;DHT22;69649;53.712;9.680;2023-05-07T14:53:23;17.60;51.00
7876;DHT22;69649;53.712;9.680;2023-05-07T14:55:49;17.80;51.10
7876;DHT22;69649;53.712;9.680;2023-05-07T14:58:14;17.50;51.10
7876;DHT22;69649;53.712;9.680;2023-05-07T15:00:40;17.30;51.10
7876;DHT22;69649;53.712;9.680;2023-05-07T15:03:08;17.30;51.80
7876;DHT22;69649;53.712;9.680;2023-05-07T15:05:35;17.20;51.40
7876;DHT22;69649;53.712;9.680;2023-05-07T15:08:02;17.40;51.00
7876;DHT22;69649;53.712;9.680;2023-05-07T15:10:30;17.20;51.30
7876;DHT22;69649;53.712;9.680;2023-05-07T15:12:56;16.90;52.00
7876;DHT22;69649;53.712;9.680;2023-05-07T15:15:22;17.00;51.90
7876;DHT22;69649;53.712;9.680;2023-05-07T15:17:47;17.00;52.40
7876;DHT22;69649;53.712;9.680;2023-05-07T15:20:13;17.00;52.20
7876;DHT22;69649;53.712;9.680;2023-05-07T15:22:39;16.80;52.50
7876;DHT22;69649;53.712;9.680;2023-05-07T15:25:07;16.90;52.40
7876;DHT22;69649;53.712;9.680;2023-05-07T15:27:33;16.80;52.50
7876;DHT22;69649;53.712;9.680;2023-05-07T15:29:59;16.70;52.50
7876;DHT22;69649;53.712;9.680;2023-05-07T15:32:25;16.70;52.70
7876;DHT22;69649;53.712;9.680;2023-05-07T15:34:50;16.80;52.20
7876;DHT22;69649;53.712;9.680;2023-05-07T15:37:16;16.70;52.50
7876;DHT22;69649;53.712;9.680;2023-05-07T15:39:42;16.60;52.60
7876;DHT22;69649;53.712;9.680;2023-05-07T15:42:07;16.60;53.00
7876;DHT22;69649;53.712;9.680;2023-05-07T15:44:33;16.50;53.00
7876;DHT22;69649;53.712;9.680;2023-05-07T15:46:59;16.50;53.20
7876;DHT22;69649;53.712;9.680;2023-05-07T15:49:25;16.50;53.30
7876;DHT22;69649;53.712;9.680;2023-05-07T15:51:51;16.60;53.20
7876;DHT22;69649;53.712;9.680;2023-05-07T15:54:20;16.70;53.00
7876;DHT22;69649;53.712;9.680;2023-05-07T15:56:46;16.40;53.00
7876;DHT22;69649;53.712;9.680;2023-05-07T15:59:12;16.40;52.90
7876;DHT22;69649;53.712;9.680;2023-05-07T16:01:40;16.50;53.10
7876;DHT22;69649;53.712;9.680;2023-05-07T16:04:07;16.80;52.50